Time;durP1;ratioP1;P1;durP2;ratioP2;P2;SDS_P1;SDS_P2;PMS_P1;PMS_P2;Temp;Humidity;BMP_temperature;BMP_pressure;BME280_temperature;BME280_humidity;BME280_pressure;Samples;Min_cycle;Max_cycle;Signal;HPM_P1;HPM_P2
2022/09/09 00:01:58;;;;;;;16.13;9.57;;;;;;;13.39;100.00;100676.91;5052568;28;20094;-60
2022/09/09 00:04:28;;;;;;;16.05;9.90;;;;;;;13.35;100.00;100676.75;5052741;28;20029;-60
2022/09/09 00:06:59;;;;;;;15.13;10.20;;;;;;;13.32;100.00;100671.84;5052861;28;20484;-60
2022/09/09 00:09:30;;;;;;;14.20;9.20;;;;;;;13.31;100.00;100683.28;5053091;28;20028;-60
2022/09/09 00:12:06;;;;;;;15.50;9.55;;;;;;;13.29;100.00;100669.69;5052870;28;20067;-60
2022/09/09 00:14:41;;;;;;;14.65;9.35;;;;;;;13.25;100.00;100669.53;5053461;28;20048;-60
2022/09/09 00:17:19;;;;;;;15.57;9.68;;;;;;;13.20;100.00;100664.16;5053340;28;20029;-60
2022/09/09 00:19:53;;;;;;;15.55;9.80;;;;;;;13.10;100.00;100654.19;5051921;28;20060;-60
2022/09/09 00:22:22;;;;;;;16.30;10.30;;;;;;;13.11;100.00;100657.81;5052704;28;20048;-60
2022/09/09 00:24:56;;;;;;;15.63;10.50;;;;;;;13.14;100.00;100659.91;5052576;28;20029;-60
2022/09/09 00:27:43;;;;;;;16.58;10.07;;;;;;;13.14;100.00;100653.56;5052680;28;20032;-60
2022/09/09 00:30:33;;;;;;;17.48;11.10;;;;;;;13.09;100.00;100654.53;5035507;28;20025;-60
2022/09/09 00:33:11;;;;;;;16.10;10.43;;;;;;;12.98;100.00;100639.34;5052629;28;20091;-60
2022/09/09 00:35:40;;;;;;;15.15;10.32;;;;;;;13.04;100.00;100658.28;5053794;28;20111;-61
2022/09/09 00:38:20;;;;;;;16.23;10.32;;;;;;;13.03;100.00;100656.66;5052209;28;20112;-61
2022/09/09 00:40:52;;;;;;;18.35;10.30;;;;;;;12.99;100.00;100655.66;5052995;28;20032;-60
2022/09/09 00:43:26;;;;;;;17.58;10.23;;;;;;;13.01;100.00;100653.38;5052631;28;20389;-59
2022/09/09 00:46:09;;;;;;;17.55;10.80;;;;;;;12.92;100.00;100647.84;5051968;28;20029;-58
2022/09/09 00:48:54;;;;;;;15.35;9.85;;;;;;;12.99;100.00;100655.66;5052009;28;20071;-58
2022/09/09 00:51:42;;;;;;;17.73;10.45;;;;;;;12.88;100.00;100632.97;5034202;28;20045;-59
2022/09/09 00:54:40;;;;;;;15.52;10.20;;;;;;;12.95;100.00;100644.41;5052447;28;20142;-58
2022/09/09 00:57:23;;;;;;;15.98;10.00;;;;;;;12.97;100.00;100640.50;5052176;28;20041;-59
2022/09/09 00:59:57;;;;;;;14.53;9.43;;;;;;;12.88;100.00;100624.66;5051754;28;20403;-59
2022/09/09 01:03:02;;;;;;;16.27;9.82;;;;;;;12.97;100.00;100640.50;5052101;28;20728;-60
2022/09/09 01:05:46;;;;;;;15.15;9.98;;;;;;;12.88;100.00;100621.88;5052722;28;20119;-59
2022/09/09 01:08:35;;;;;;;15.35;10.07;;;;;;;12.90;100.00;100629.88;5052579;28;20052;-59
2022/09/09 01:11:02;;;;;;;17.33;9.73;;;;;;;12.89;100.00;100629.06;5034111;28;20225;-59
2022/09/09 01:13:36;;;;;;;16.63;10.05;;;;;;;12.87;100.00;100631.34;5051845;28;20020;-61
2022/09/09 01:16:05;;;;;;;16.08;9.45;;;;;;;12.84;100.00;100629.25;5052177;28;20033;-60
2022/09/09 01:18:39;;;;;;;14.50;9.50;;;;;;;12.86;100.00;100640.00;5081185;22;20064;-58
2022/09/09 01:21:35;;;;;;;15.80;9.95;;;;;;;12.86;100.00;100634.47;5071004;28;20020;-58
2022/09/09 01:24:18;;;;;;;16.55;9.32;;;;;;;12.84;100.00;100631.19;5071110;28;20032;-60
2022/09/09 01:26:45;;;;;;;16.58;10.27;;;;;;;12.82;100.00;100634.31;5071799;28;20120;-63
2022/09/09 01:29:16;;;;;;;16.48;9.90;;;;;;;12.80;100.00;100631.84;5071067;28;20033;-59
2022/09/09 01:32:21;;;;;;;16.15;9.90;;;;;;;12.74;100.00;100621.25;5070842;28;20051;-59
2022/09/09 01:34:46;;;;;;;15.95;9.55;;;;;;;12.75;100.00;100626.47;5064481;28;20191;-59
2022/09/09 01:37:13;;;;;;;16.48;9.95;;;;;;;12.78;100.00;100631.38;5071019;28;20148;-57
2022/09/09 01:39:41;;;;;;;17.15;9.80;;;;;;;12.76;100.00;100627.25;5069795;28;20029;-57
2022/09/09 01:42:09;;;;;;;16.48;9.75;;;;;;;12.68;100.00;100619.75;5071499;28;20127;-57
2022/09/09 01:44:37;;;;;;;15.68;9.75;;;;;;;12.74;100.00;100627.59;5071026;28;20060;-57
2022/09/09 01:47:04;;;;;;;17.98;10.20;;;;;;;12.73;100.00;100625.16;5070612;28;20029;-58
2022/09/09 01:49:29;;;;;;;17.35;9.93;;;;;;;12.72;100.00;100627.09;5070311;28;20488;-57
2022/09/09 01:51:56;;;;;;;15.93;9.95;;;;;;;12.71;100.00;100619.91;5070935;28;20024;-58
2022/09/09 01:54:24;;;;;;;16.58;9.70;;;;;;;12.71;100.00;100628.25;5071336;28;20046;-58
2022/09/09 01:57:01;;;;;;;16.70;9.85;;;;;;;12.70;100.00;100618.31;5071353;28;20036;-58
2022/09/09 02:00:09;;;;;;;17.35;9.80;;;;;;;12.71;100.00;100625.47;5071498;28;20396;-58
2022/09/09 02:02:56;;;;;;;15.82;9.65;;;;;;;12.67;100.00;100618.94;5053370;28;20024;-58
2022/09/09 02:05:37;;;;;;;15.75;9.77;;;;;;;12.69;100.00;100610.28;5071079;28;20028;-58
2022/09/09 02:08:20;;;;;;;15.82;10.23;;;;;;;12.68;100.00;100614.19;5071185;28;20381;-57
2022/09/09 02:10:54;;;;;;;17.73;9.65;;;;;;;12.67;100.00;100609.78;5070705;28;20074;-58
2022/09/09 02:13:22;;;;;;;16.77;9.57;;;;;;;12.64;100.00;100602.94;5052325;28;20396;-57
2022/09/09 02:15:55;;;;;;;15.80;9.77;;;;;;;12.60;100.00;100597.22;5052836;28;20399;-59
2022/09/09 02:18:30;;;;;;;16.23;9.80;;;;;;;12.58;100.00;100602.28;5052167;28;20051;-57
2022/09/09 02:20:58;;;;;;;16.88;9.93;;;;;;;12.57;100.00;100597.88;5070482;28;20037;-58
2022/09/09 02:23:24;;;;;;;15.98;9.60;;;;;;;12.56;100.00;100593.50;5070878;28;20029;-59
2022/09/09 02:25:52;;;;;;;19.08;10.75;;;;;;;12.57;100.00;100588.75;5052834;28;20120;-58
2022/09/09 02:28:21;;;;;;;16.10;10.05;;;;;;;12.50;100.00;100575.34;5071706;28;20021;-59
2022/09/09 02:30:54;;;;;;;17.05;10.05;;;;;;;12.54;100.00;100593.00;5071766;28;20389;-59
2022/09/09 02:33:24;;;;;;;15.80;9.98;;;;;;;12.45;100.00;100579.09;5071180;28;20052;-59
2022/09/09 02:35:51;;;;;;;16.42;9.45;;;;;;;12.53;100.00;100587.75;5070066;28;20455;-57
2022/09/09 02:38:17;;;;;;;14.05;9.73;;;;;;;12.51;100.00;100599.19;5070515;28;20025;-61
2022/09/09 02:40:42;;;;;;;19.50;10.00;;;;;;;12.52;100.00;100597.22;5069363;28;20108;-59
2022/09/09 02:43:08;;;;;;;17.70;10.13;;;;;;;12.53;100.00;100596.91;5070095;28;20041;-58
2022/09/09 02:45:52;;;;;;;17.85;10.07;;;;;;;12.50;100.00;100597.53;5070372;28;20028;-59
2022/09/09 02:48:22;;;;;;;15.73;9.27;;;;;;;12.51;100.00;100596.41;5070834;28;20047;-58
2022/09/09 02:51:10;;;;;;;15.32;9.18;;;;;;;12.52;100.00;100597.22;5053814;28;20036;-58
2022/09/09 02:53:50;;;;;;;17.13;9.27;;;;;;;12.51;100.00;100603.94;5075105;28;20077;-59
2022/09/09 02:56:19;;;;;;;17.88;9.60;;;;;;;12.50;100.00;100599.53;5075206;28;20021;-59
2022/09/09 02:58:46;;;;;;;17.08;9.38;;;;;;;12.48;100.00;100591.50;5074394;28;20128;-57
2022/09/09 03:01:11;;;;;;;15.57;9.27;;;;;;;12.46;100.00;100602.94;5056676;28;20056;-58
2022/09/09 03:03:36;;;;;;;17.35;9.98;;;;;;;12.47;100.00;100603.72;5074771;28;20151;-58
2022/09/09 03:06:02;;;;;;;18.30;9.52;;;;;;;12.45;100.00;100614.38;5074506;28;20334;-57
2022/09/09 03:08:27;;;;;;;17.17;9.10;;;;;;;12.42;100.00;100598.34;5074711;28;20082;-59
2022/09/09 03:10:58;;;;;;;15.80;8.82;;;;;;;12.42;100.00;100596.38;5073485;28;20492;-58
2022/09/09 03:13:25;;;;;;;15.80;9.48;;;;;;;12.51;100.00;100607.50;5073139;28;20032;-59
2022/09/09 03:15:51;;;;;;;18.52;9.75;;;;;;;12.49;100.00;100598.69;5073559;28;20060;-58
2022/09/09 03:18:16;;;;;;;18.15;9.57;;;;;;;12.51;100.00;100604.72;5073081;28;20075;-57
2022/09/09 03:20:42;;;;;;;17.95;10.38;;;;;;;12.53;100.00;100605.22;5073988;28;20052;-58
2022/09/09 03:23:08;;;;;;;17.08;10.27;;;;;;;12.54;100.00;100606.03;5074081;28;20594;-59
2022/09/09 03:25:33;;;;;;;17.48;10.13;;;;;;;12.55;100.00;100602.94;5074300;28;20353;-57
2022/09/09 03:27:58;;;;;;;17.55;10.27;;;;;;;12.54;100.00;100598.53;5073489;28;20028;-57
2022/09/09 03:30:26;;;;;;;17.77;9.95;;;;;;;12.54;100.00;100601.31;5074332;28;20039;-59
2022/09/09 03:32:52;;;;;;;17.83;10.13;;;;;;;12.54;100.00;100600.47;5073602;28;20024;-59
2022/09/09 03:35:17;;;;;;;17.73;10.48;;;;;;;12.53;100.00;100599.69;5073597;28;20580;-58
2022/09/09 03:37:43;;;;;;;19.58;10.35;;;;;;;12.55;100.00;100613.22;5073145;28;20365;-58
2022/09/09 03:40:11;;;;;;;18.40;10.15;;;;;;;12.54;100.00;100608.81;5073567;28;20360;-58
2022/09/09 03:42:38;;;;;;;18.52;10.57;;;;;;;12.56;100.00;100607.38;5073094;28;20063;-58
2022/09/09 03:45:05;;;;;;;16.85;10.20;;;;;;;12.58;100.00;100612.56;5072858;28;20130;-58
2022/09/09 03:47:30;;;;;;;19.15;11.50;;;;;;;12.61;100.00;100606.38;5073588;28;20051;-57
2022/09/09 03:49:55;;;;;;;20.02;11.73;;;;;;;12.64;100.00;100619.59;5073412;28;20024;-58
2022/09/09 03:52:24;;;;;;;20.15;11.40;;;;;;;12.66;100.00;100608.19;5073302;28;20519;-56
2022/09/09 03:54:50;;;;;;;17.10;10.63;;;;;;;12.68;100.00;100606.72;5073148;28;20356;-59
2022/09/09 03:57:16;;;;;;;16.85;11.20;;;;;;;12.69;100.00;100601.97;5073308;28;20016;-59
2022/09/09 03:59:42;;;;;;;19.30;11.70;;;;;;;12.69;100.00;100615.84;5073571;28;20035;-59
2022/09/09 04:02:08;;;;;;;18.92;10.80;;;;;;;12.70;100.00;100606.38;5072139;28;20032;-58
2022/09/09 04:04:34;;;;;;;19.67;11.40;;;;;;;12.73;100.00;100595.44;5072970;28;20060;-59
2022/09/09 04:06:59;;;;;;;19.08;11.35;;;;;;;12.77;100.00;100604.75;5067490;28;20025;-58
2022/09/09 04:09:24;;;;;;;18.02;10.55;;;;;;;12.77;100.00;100599.19;5073086;28;20035;-58
2022/09/09 04:11:50;;;;;;;17.83;10.27;;;;;;;12.79;100.00;100598.84;5072564;28;20028;-59
2022/09/09 04:14:15;;;;;;;18.90;10.70;;;;;;;12.80;100.00;100597.72;5073038;28;20534;-60
2022/09/09 04:16:44;;;;;;;18.92;10.90;;;;;;;12.79;100.00;100596.09;5073250;28;20035;-60
2022/09/09 04:19:12;;;;;;;18.92;10.77;;;;;;;12.77;100.00;100598.34;5073023;28;20111;-58
2022/09/09 04:21:39;;;;;;;19.13;10.60;;;;;;;12.75;100.00;100589.56;5072833;28;20530;-59
2022/09/09 04:24:05;;;;;;;18.88;10.38;;;;;;;12.74;100.00;100582.38;5073539;28;20020;-58
2022/09/09 04:26:30;;;;;;;17.65;10.80;;;;;;;12.75;100.00;100586.78;5073851;28;20362;-60
2022/09/09 04:28:55;;;;;;;18.00;10.48;;;;;;;12.76;100.00;100592.00;5072857;28;20033;-59
2022/09/09 04:31:23;;;;;;;21.92;11.30;;;;;;;12.78;100.00;100594.44;5071997;28;20029;-59
2022/09/09 04:33:52;;;;;;;19.33;10.80;;;;;;;12.81;100.00;100596.56;5072036;28;20068;-59
2022/09/09 04:36:19;;;;;;;19.40;11.02;;;;;;;12.79;100.00;100585.81;5072652;28;20100;-59
2022/09/09 04:38:45;;;;;;;18.98;10.98;;;;;;;12.79;100.00;100587.75;5072448;28;20047;-59
2022/09/09 04:41:11;;;;;;;18.65;11.00;;;;;;;12.79;100.00;100591.38;5073138;28;20025;-58
2022/09/09 04:43:37;;;;;;;22.00;11.40;;;;;;;12.81;100.00;100585.47;5071890;28;20062;-58
2022/09/09 04:46:03;;;;;;;18.73;11.43;;;;;;;12.84;100.00;100587.59;5071492;28;20024;-57
2022/09/09 04:48:30;;;;;;;18.20;11.18;;;;;;;12.85;100.00;100575.31;5072091;28;20027;-58
2022/09/09 04:50:57;;;;;;;19.35;11.63;;;;;;;12.86;100.00;100573.38;5071892;28;20032;-56
2022/09/09 04:53:23;;;;;;;21.95;11.80;;;;;;;12.87;100.00;100575.03;5071985;28;20032;-56
2022/09/09 04:55:49;;;;;;;18.65;11.30;;;;;;;12.90;100.00;100569.63;5071754;28;20028;-57
2022/09/09 04:58:14;;;;;;;23.58;12.52;;;;;;;12.92;100.00;100580.38;5071951;28;20027;-57
2022/09/09 05:00:39;;;;;;;19.52;12.10;;;;;;;12.91;100.00;100571.25;5071838;28;20115;-58
2022/09/09 05:03:05;;;;;;;22.00;11.80;;;;;;;12.92;100.00;100569.28;5072138;28;20115;-58
2022/09/09 05:05:34;;;;;;;20.80;11.13;;;;;;;12.91;100.00;100579.59;5072945;28;20047;-57
2022/09/09 05:08:07;;;;;;;20.58;11.63;;;;;;;12.88;100.00;100577.47;5072099;28;20029;-57
2022/09/09 05:10:34;;;;;;;18.27;10.75;;;;;;;12.88;100.00;100571.91;5053115;28;20391;-58
2022/09/09 05:12:59;;;;;;;21.20;11.90;;;;;;;12.88;100.00;100583.00;5072083;28;20112;-58
2022/09/09 05:15:25;;;;;;;19.25;11.82;;;;;;;12.89;100.00;100572.75;5072196;28;20121;-59
2022/09/09 05:17:52;;;;;;;22.48;11.73;;;;;;;12.91;100.00;100570.44;5071001;28;20044;-58
2022/09/09 05:20:18;;;;;;;18.45;11.15;;;;;;;12.91;100.00;100571.25;5071291;28;20031;-58
2022/09/09 05:22:43;;;;;;;19.67;10.82;;;;;;;12.96;100.00;100570.28;5047190;28;20107;-58
2022/09/09 05:25:09;;;;;;;20.48;10.82;;;;;;;12.99;100.00;100571.56;5072293;28;20086;-60
2022/09/09 05:27:34;;;;;;;21.90;11.57;;;;;;;13.01;100.00;100578.41;5071422;28;20024;-59
2022/09/09 05:30:00;;;;;;;19.35;10.90;;;;;;;13.03;100.00;100562.25;5071358;28;20031;-59
2022/09/09 05:32:25;;;;;;;18.75;11.07;;;;;;;13.03;100.00;100569.78;5070814;28;20490;-57
2022/09/09 05:34:52;;;;;;;20.35;10.65;;;;;;;13.02;100.00;100570.91;5071624;28;20098;-59
2022/09/09 05:37:18;;;;;;;19.42;10.75;;;;;;;13.02;100.00;100571.72;5070736;28;20420;-58
2022/09/09 05:39:43;;;;;;;20.92;10.73;;;;;;;13.04;100.00;100563.06;5071371;28;20371;-58
2022/09/09 05:42:08;;;;;;;19.25;9.93;;;;;;;13.03;100.00;100559.47;5071058;28;20029;-58
2022/09/09 05:44:34;;;;;;;21.95;10.32;;;;;;;13.05;100.00;100559.97;5071252;28;20029;-58
2022/09/09 05:46:59;;;;;;;21.02;10.50;;;;;;;13.06;100.00;100567.16;5071380;28;20103;-58
2022/09/09 05:49:25;;;;;;;19.77;10.50;;;;;;;13.09;100.00;100565.66;5072278;28;20039;-58
2022/09/09 05:51:50;;;;;;;21.27;10.32;;;;;;;13.11;100.00;100569.75;5072344;28;20036;-58
2022/09/09 05:54:16;;;;;;;21.80;11.00;;;;;;;13.13;100.00;100580.50;5071699;28;20028;-58
2022/09/09 05:56:42;;;;;;;19.90;10.13;;;;;;;13.16;100.00;100570.72;5071485;28;20024;-58
2022/09/09 05:59:07;;;;;;;21.00;10.27;;;;;;;13.21;100.00;100582.47;5071334;28;20107;-60
2022/09/09 06:01:35;;;;;;;19.48;10.05;;;;;;;13.27;100.00;100586.69;5071824;28;20029;-58
2022/09/09 06:04:01;;;;;;;20.35;10.27;;;;;;;13.33;100.00;100587.34;5071436;28;20028;-58
2022/09/09 06:06:30;;;;;;;19.70;10.25;;;;;;;13.33;100.00;100569.84;5071810;28;20032;-59
2022/09/09 06:08:57;;;;;;;20.23;9.85;;;;;;;13.46;100.00;100582.75;5072302;28;20024;-59
2022/09/09 06:11:30;;;;;;;19.55;10.05;;;;;;;13.51;100.00;100588.13;5071485;28;20036;-58
2022/09/09 06:13:57;;;;;;;17.92;9.57;;;;;;;13.55;100.00;100596.63;5070849;28;20108;-59
2022/09/09 06:16:26;;;;;;;19.83;9.95;;;;;;;13.51;100.00;100584.53;5070861;28;20032;-59
2022/09/09 06:18:53;;;;;;;22.65;11.50;;;;;;;13.63;100.00;100589.38;5070768;28;20512;-58
2022/09/09 06:21:24;;;;;;;20.38;10.93;;;;;;;13.72;100.00;100590.16;5071231;28;20024;-58
2022/09/09 06:23:51;;;;;;;21.25;10.40;;;;;;;13.78;100.00;100580.50;5071597;28;20083;-58
2022/09/09 06:26:19;;;;;;;20.52;10.20;;;;;;;13.86;100.00;100578.81;5072785;28;20056;-58
2022/09/09 06:28:49;;;;;;;20.52;10.35;;;;;;;13.92;100.00;100583.06;5056617;28;20104;-59
2022/09/09 06:31:21;;;;;;;20.02;10.50;;;;;;;13.96;100.00;100572.88;5056983;28;20457;-59
2022/09/09 06:33:47;;;;;;;24.15;10.20;;;;;;;14.07;100.00;100580.81;5076025;28;20028;-59
2022/09/09 06:36:14;;;;;;;19.48;9.88;;;;;;;14.09;100.00;100572.97;5075460;28;20032;-59
2022/09/09 06:38:41;;;;;;;19.77;10.25;;;;;;;14.31;100.00;100578.19;5073831;28;20036;-58
2022/09/09 06:41:06;;;;;;;19.52;10.30;;;;;;;14.45;100.00;100577.94;5055106;28;20048;-58
2022/09/09 06:43:31;;;;;;;18.70;9.60;;;;;;;14.59;100.00;100571.28;5055095;28;20129;-57
2022/09/09 06:45:59;;;;;;;20.92;10.57;;;;;;;14.75;100.00;100577.88;5073126;28;20028;-58
2022/09/09 06:48:26;;;;;;;16.75;9.88;;;;;;;14.77;100.00;100578.38;5072990;28;20035;-58
2022/09/09 06:51:02;;;;;;;21.50;10.00;;;;;;;14.74;100.00;100572.66;5072550;28;20029;-58
2022/09/09 06:53:28;;;;;;;17.08;9.43;;;;;;;14.81;100.00;100572.94;5073023;28;20439;-60
2022/09/09 06:55:54;;;;;;;20.35;10.38;;;;;;;14.82;100.00;100569.81;5072928;28;20025;-59
2022/09/09 06:58:21;;;;;;;20.63;10.40;;;;;;;14.86;100.00;100575.53;5054738;28;20059;-59
2022/09/09 07:00:47;;;;;;;21.15;10.35;;;;;;;14.88;100.00;100570.41;5072920;28;20036;-59
2022/09/09 07:03:13;;;;;;;18.85;10.13;;;;;;;14.91;100.00;100571.72;5072487;28;20387;-59
2022/09/09 07:05:38;;;;;;;19.67;9.77;;;;;;;14.89;100.00;100571.22;5075592;28;20098;-59
2022/09/09 07:08:03;;;;;;;18.23;10.10;;;;;;;14.90;100.00;100573.66;5072838;28;20028;-61
2022/09/09 07:10:28;;;;;;;23.40;10.35;;;;;;;14.95;100.00;100572.63;5072930;28;20032;-57
2022/09/09 07:12:54;;;;;;;20.45;10.18;;;;;;;15.00;100.00;100566.88;5073113;28;20024;-59
2022/09/09 07:15:22;;;;;;;20.35;10.57;;;;;;;15.06;100.00;100573.03;5072852;28;20029;-58
2022/09/09 07:17:48;;;;;;;18.92;10.00;;;;;;;15.10;100.00;100569.22;5072264;28;20098;-58
2022/09/09 07:20:14;;;;;;;18.17;9.40;;;;;;;15.16;100.00;100572.56;5072281;28;20029;-58
2022/09/09 07:22:40;;;;;;;22.10;10.90;;;;;;;15.26;100.00;100576.91;5072961;28;20082;-58
2022/09/09 07:25:06;;;;;;;19.60;10.13;;;;;;;15.39;100.00;100578.56;5071313;28;20032;-60
2022/09/09 07:27:31;;;;;;;20.20;10.10;;;;;;;15.51;100.00;100576.94;5073001;28;20481;-59
2022/09/09 07:29:58;;;;;;;20.35;10.57;;;;;;;15.64;99.38;100572.19;5073444;28;20044;-60
2022/09/09 07:32:23;;;;;;;21.25;9.52;;;;;;;15.75;97.71;100573.38;5073484;28;20032;-59
2022/09/09 07:34:50;;;;;;;20.33;9.40;;;;;;;15.76;95.94;100566.63;5072350;28;20035;-57
2022/09/09 07:37:15;;;;;;;19.80;10.23;;;;;;;15.83;96.08;100569.63;5071381;28;20123;-58
2022/09/09 07:39:41;;;;;;;17.15;9.38;;;;;;;15.97;95.53;100555.38;5054332;28;20107;-58
2022/09/09 07:42:07;;;;;;;17.23;9.30;;;;;;;16.05;94.31;100557.25;5071737;28;20102;-57
2022/09/09 07:44:34;;;;;;;18.20;9.20;;;;;;;16.08;93.68;100566.88;5054121;28;20028;-59
2022/09/09 07:47:01;;;;;;;18.05;9.25;;;;;;;16.18;94.62;100560.00;5072229;28;20119;-58
2022/09/09 07:49:26;;;;;;;19.75;9.55;;;;;;;16.28;92.07;100567.88;5072302;28;20035;-58
2022/09/09 07:51:52;;;;;;;20.33;10.10;;;;;;;16.29;93.17;100574.31;5071878;28;20028;-58
2022/09/09 07:54:23;;;;;;;19.17;9.00;;;;;;;16.17;91.46;100570.38;5071486;28;20107;-58
2022/09/09 07:56:49;;;;;;;17.13;9.25;;;;;;;16.15;92.50;100583.03;5071969;28;20033;-58
2022/09/09 07:59:15;;;;;;;19.42;9.55;;;;;;;16.17;92.27;100569.53;5071802;28;20033;-59
2022/09/09 08:01:46;;;;;;;17.48;8.80;;;;;;;16.22;91.20;100567.31;5071263;28;20081;-59
2022/09/09 08:04:17;;;;;;;17.55;9.00;;;;;;;16.35;89.26;100579.25;5071005;28;20043;-57
2022/09/09 08:06:46;;;;;;;16.95;9.10;;;;;;;16.25;89.57;100568.59;5071604;28;20020;-58
2022/09/09 08:09:11;;;;;;;18.65;9.05;;;;;;;16.29;90.58;100579.88;5071620;28;20096;-59
2022/09/09 08:11:39;;;;;;;19.45;8.60;;;;;;;16.33;89.13;100581.63;5071731;28;20570;-59
2022/09/09 08:14:05;;;;;;;19.83;8.65;;;;;;;16.43;89.73;100576.72;5072035;28;20127;-59
2022/09/09 08:16:33;;;;;;;18.52;8.88;;;;;;;16.47;89.89;100580.41;5071988;28;20031;-59
2022/09/09 08:18:58;;;;;;;19.33;9.15;;;;;;;16.46;88.94;100574.03;5071037;28;20053;-58
2022/09/09 08:21:29;;;;;;;16.67;9.35;;;;;;;16.51;89.14;100584.94;5071420;28;20024;-59
2022/09/09 08:23:56;;;;;;;18.38;8.50;;;;;;;16.62;87.73;100587.22;5052059;28;20547;-58
2022/09/09 08:26:27;;;;;;;20.05;9.15;;;;;;;16.61;88.66;100585.59;5071027;28;20029;-58
2022/09/09 08:28:55;;;;;;;20.77;9.70;;;;;;;16.59;87.38;100593.50;5070995;28;20024;-58
2022/09/09 08:31:27;;;;;;;17.02;8.85;;;;;;;16.54;87.52;100591.78;5071092;28;20024;-58
2022/09/09 08:33:53;;;;;;;18.48;8.90;;;;;;;16.52;87.78;100582.97;5071382;28;20103;-58
2022/09/09 08:36:21;;;;;;;19.08;9.15;;;;;;;16.52;87.71;100594.13;5053188;28;20111;-59
2022/09/09 08:38:52;;;;;;;17.75;8.63;;;;;;;16.56;88.57;100577.50;5071006;28;20477;-58
2022/09/09 08:41:34;;;;;;;18.55;8.75;;;;;;;16.63;87.54;100603.63;5071404;28;20037;-61
2022/09/09 08:44:09;;;;;;;17.42;9.00;;;;;;;16.63;87.31;100598.03;5071959;28;20677;-59
2022/09/09 08:47:12;;;;;;;18.65;9.15;;;;;;;16.62;86.93;100599.22;5071991;28;20109;-59
2022/09/09 08:50:05;;;;;;;19.05;8.90;;;;;;;16.64;87.62;100591.28;5053525;28;20071;-58
2022/09/09 08:53:10;;;;;;;18.80;8.90;;;;;;;16.68;86.93;100597.81;5070704;28;20492;-59
2022/09/09 08:55:58;;;;;;;19.63;8.60;;;;;;;16.67;85.42;100604.56;5070798;28;20024;-58
2022/09/09 08:58:29;;;;;;;17.88;8.45;;;;;;;16.59;85.47;100596.31;5071151;28;20043;-57
2022/09/09 09:01:16;;;;;;;18.65;8.55;;;;;;;16.71;86.55;100598.28;5070122;28;20036;-59
2022/09/09 09:04:29;;;;;;;17.67;8.20;;;;;;;16.68;86.70;100591.38;5070121;28;20028;-59
2022/09/09 09:07:07;;;;;;;18.08;8.40;;;;;;;16.67;85.46;100606.56;5069561;28;20041;-59
2022/09/09 09:09:49;;;;;;;17.85;8.55;;;;;;;16.63;85.55;100609.22;5069693;28;20042;-59
2022/09/09 09:12:24;;;;;;;20.40;8.85;;;;;;;16.53;85.81;100598.56;5069884;28;20028;-59
2022/09/09 09:14:50;;;;;;;18.25;9.25;;;;;;;16.52;86.12;100616.47;5068594;28;20032;-58
2022/09/09 09:17:21;;;;;;;21.15;9.20;;;;;;;16.46;86.38;100617.88;5069552;28;20059;-58
2022/09/09 09:19:49;;;;;;;17.83;8.80;;;;;;;16.48;87.24;100610.75;5069521;28;20111;-58
2022/09/09 09:22:22;;;;;;;17.65;9.07;;;;;;;16.47;86.51;100614.75;5068644;28;20024;-58
2022/09/09 09:25:00;;;;;;;18.00;8.75;;;;;;;16.54;87.79;100619.69;5067340;28;20349;-59
2022/09/09 09:27:35;;;;;;;19.15;9.07;;;;;;;16.58;86.96;100615.06;5069659;28;20813;-59
2022/09/09 09:30:31;;;;;;;15.07;8.40;;;;;;;16.57;86.22;100604.25;5070530;28;20029;-58
2022/09/09 09:33:05;;;;;;;15.82;8.30;;;;;;;16.64;85.73;100602.47;5015447;28;20125;-59
2022/09/09 09:35:31;;;;;;;21.80;9.27;;;;;;;16.77;84.90;100611.59;5070087;28;20043;-60
2022/09/09 09:37:56;;;;;;;20.27;9.00;;;;;;;16.84;85.09;100616.59;5069818;28;20108;-58
2022/09/09 09:40:23;;;;;;;18.92;9.00;;;;;;;16.87;84.97;100613.09;5069687;28;20036;-59
2022/09/09 09:42:52;;;;;;;18.60;8.98;;;;;;;16.80;85.16;100596.94;5069559;28;20027;-60
2022/09/09 09:45:32;;;;;;;18.23;9.43;;;;;;;16.97;84.49;100609.00;5069617;28;20611;-58
2022/09/09 09:48:03;;;;;;;17.10;8.75;;;;;;;16.96;84.21;100602.63;5051622;28;20064;-58
2022/09/09 09:50:29;;;;;;;18.35;9.15;;;;;;;17.07;84.04;100611.28;5069526;28;20036;-58
2022/09/09 09:53:02;;;;;;;14.88;8.35;;;;;;;17.07;83.31;100607.69;5069564;28;20033;-60
2022/09/09 09:55:29;;;;;;;17.73;8.48;;;;;;;17.27;83.84;100612.25;5069596;28;20403;-59
2022/09/09 09:58:01;;;;;;;18.48;8.80;;;;;;;17.39;82.64;100614.16;5069622;28;20070;-60
2022/09/09 10:00:26;;;;;;;18.00;8.57;;;;;;;17.53;82.86;100610.09;5068561;28;20039;-59
2022/09/09 10:02:52;;;;;;;17.33;8.13;;;;;;;17.58;81.86;100613.44;5068675;28;20024;-60
2022/09/09 10:05:25;;;;;;;18.20;8.48;;;;;;;17.54;81.19;100614.53;5069667;28;20033;-59
2022/09/09 10:08:05;;;;;;;16.65;8.98;;;;;;;17.51;82.13;100610.47;5069432;28;20029;-59
2022/09/09 10:10:44;;;;;;;17.52;8.68;;;;;;;17.40;81.12;100609.38;5069533;28;20047;-59
2022/09/09 10:13:21;;;;;;;18.70;8.65;;;;;;;17.28;81.23;100599.09;5069606;28;20029;-60
2022/09/09 10:16:24;;;;;;;20.33;8.95;;;;;;;17.27;81.52;100612.25;5069819;28;20091;-59
2022/09/09 10:19:02;;;;;;;19.30;9.07;;;;;;;17.04;82.98;100603.66;5070305;28;20057;-59
2022/09/09 10:21:42;;;;;;;17.00;8.52;;;;;;;17.00;84.61;100625.06;5069880;28;20039;-59
2022/09/09 10:24:33;;;;;;;17.77;8.93;;;;;;;16.89;86.35;100613.56;5067842;28;20025;-58
2022/09/09 10:27:23;;;;;;;16.52;9.00;;;;;;;16.81;86.26;100615.34;5069457;28;20085;-59
2022/09/09 10:30:12;;;;;;;17.92;8.80;;;;;;;16.84;86.75;100622.19;5069062;28;20134;-59
2022/09/09 10:32:46;;;;;;;15.90;8.90;;;;;;;16.76;87.11;100598.84;5069099;28;20055;-59
2022/09/09 10:35:34;;;;;;;16.95;8.85;;;;;;;17.09;87.23;100625.72;5069662;28;20035;-60
2022/09/09 10:38:02;;;;;;;18.92;8.90;;;;;;;17.28;87.95;100627.03;5068663;28;20029;-59
2022/09/09 10:40:37;;;;;;;18.77;8.85;;;;;;;17.34;85.99;100625.59;5068525;28;20388;-59
2022/09/09 10:43:22;;;;;;;18.35;9.07;;;;;;;17.27;86.75;100619.81;5068886;28;20035;-59
2022/09/09 10:46:00;;;;;;;18.88;9.60;;;;;;;17.20;87.74;100616.84;5068807;28;20051;-59
2022/09/09 10:48:37;;;;;;;17.63;9.63;;;;;;;17.22;88.04;100629.28;5068841;28;20052;-59
2022/09/09 10:51:21;;;;;;;16.13;9.45;;;;;;;17.18;89.39;100631.19;5069008;28;20422;-60
2022/09/09 10:54:03;;;;;;;;;;;;;;;17.31;87.69;100627.13;5069759;28;20044;-60
2022/09/09 10:56:29;;;;;;;18.33;9.73;;;;;;;17.24;88.60;100632.53;5068960;28;19943;-59
2022/09/09 10:59:00;;;;;;;16.88;9.45;;;;;;;17.17;89.24;100635.13;5068893;28;20555;-60
2022/09/09 11:01:32;;;;;;;17.45;9.63;;;;;;;17.04;89.12;100630.75;5068985;28;20063;-59
2022/09/09 11:04:13;;;;;;;17.02;9.80;;;;;;;17.06;90.55;100626.44;5050598;28;20128;-59
2022/09/09 11:06:44;;;;;;;19.30;9.50;;;;;;;16.98;90.52;100617.06;5068966;28;20107;-59
2022/09/09 11:09:17;;;;;;;18.27;9.85;;;;;;;17.16;90.98;100619.53;5062817;28;20033;-60
2022/09/09 11:11:51;;;;;;;18.92;9.90;;;;;;;17.30;90.16;100617.13;5075265;28;20029;-58
2022/09/09 11:14:23;;;;;;;17.45;9.65;;;;;;;17.42;89.63;100613.47;5081442;28;20395;-58
2022/09/09 11:16:56;;;;;;;17.52;9.90;;;;;;;17.54;88.80;100623.75;5081198;28;20368;-58
2022/09/09 11:19:32;;;;;;;18.35;11.07;;;;;;;17.45;87.39;100623.09;5082335;28;20554;-60
2022/09/09 11:22:00;;;;;;;17.42;9.82;;;;;;;17.30;88.32;100619.13;5081251;28;20034;-59
2022/09/09 11:24:33;;;;;;;16.05;10.13;;;;;;;17.23;89.15;100608.53;5076011;28;20072;-58
2022/09/09 11:27:24;;;;;;;18.95;10.20;;;;;;;17.25;89.07;100628.56;5072966;28;20024;-58
2022/09/09 11:30:01;;;;;;;18.25;9.93;;;;;;;17.18;89.88;100619.16;5072551;28;20138;-58